Photometre #75[NE_1.6] Paris AOT

File : 20220923_75.hum

23/09/2022,06:32:31,TEMP=12.9,BA=5.68,STAT.A=4.5,ExtBa=13.95
23/09/2022,06:36:26,TEMP=13.2,BA=5.68,STAT.A=4.5,ExtBa=13.91
23/09/2022,06:41:02,TEMP=13.3,BA=5.68,STAT.A=4.5,ExtBa=13.90
23/09/2022,06:46:30,TEMP=13.3,BA=5.68,STAT.A=4.5,ExtBa=13.92
23/09/2022,06:53:06,TEMP=13.4,BA=5.68,STAT.A=4.5,ExtBa=13.94
23/09/2022,07:01:15,TEMP=13.5,BA=5.68,STAT.A=4.5,ExtBa=13.95
23/09/2022,07:11:36,TEMP=13.6,BA=5.68,STAT.B=4.5,ExtBa=13.95
23/09/2022,07:16:34,TEMP=13.8,BA=5.68,STAT.A=4.5,ExtBa=13.94
23/09/2022,07:22:08,TEMP=13.9,BA=5.68,STAT.A=4.5,ExtBa=13.54
23/09/2022,07:28:26,TEMP=14.1,BA=5.68,STAT.A=4.5,ExtBa=13.67
23/09/2022,07:35:37,TEMP=14.2,BA=5.60,STAT.A=4.5,ExtBa=13.79
23/09/2022,07:43:55,TEMP=14.3,BA=5.68,STAT.C=4.5,ExtBa=13.84
23/09/2022,07:53:37,TEMP=14.5,BA=5.68,STAT.A=4.5,ExtBa=13.93
23/09/2022,08:05:09,TEMP=14.7,BA=5.68,STAT.A=4.5,ExtBa=13.97
23/09/2022,08:19:08,TEMP=15.6,BA=5.68,STAT.A=4.5,ExtBa=13.96
23/09/2022,08:36:38,TEMP=16.4,BA=5.68,STAT.A=4.5,ExtBa=13.95
23/09/2022,08:43:42,TEMP=16.9,BA=5.68,STAT.F,ExtBa=13.92
23/09/2022,08:58:41,TEMP=17.8,BA=5.36,STAT.D=4.5,ExtBa=12.86
23/09/2022,09:13:41,TEMP=17.5,BA=5.68,STAT.D=5.0,ExtBa=13.49
23/09/2022,09:28:41,TEMP=17.4,BA=5.68,STAT.D=5.0,ExtBa=13.80
23/09/2022,09:43:43,TEMP=18.0,BA=5.68,STAT.F,ExtBa=13.90
23/09/2022,09:59:53,TEMP=19.3,BA=5.36,STAT.D=5.0,ExtBa=12.93
23/09/2022,10:13:41,TEMP=19.9,BA=5.68,STAT.D=5.0,ExtBa=13.46
23/09/2022,10:28:41,TEMP=21.0,BA=5.68,STAT.D=5.0,ExtBa=13.74
23/09/2022,10:43:43,TEMP=20.9,BA=5.68,STAT.F,ExtBa=13.85
23/09/2022,10:58:41,TEMP=21.5,BA=5.36,STAT.D=5.0,ExtBa=12.90
23/09/2022,11:13:41,TEMP=22.3,BA=5.68,STAT.D=5.0,ExtBa=13.49
23/09/2022,11:28:41,TEMP=22.4,BA=5.68,STAT.D=5.0,ExtBa=13.73
23/09/2022,11:43:43,TEMP=22.3,BA=5.68,STAT.F,ExtBa=13.84
23/09/2022,11:58:41,TEMP=22.6,BA=5.36,STAT.D=5.0,ExtBa=13.32
23/09/2022,12:13:41,TEMP=23.7,BA=5.68,STAT.D=5.0,ExtBa=13.72
23/09/2022,12:28:41,TEMP=24.5,BA=5.68,STAT.D=5.0,ExtBa=13.87
23/09/2022,12:43:43,TEMP=24.5,BA=5.68,STAT.F,ExtBa=13.89
23/09/2022,12:58:41,TEMP=24.6,BA=5.36,STAT.D=5.0,ExtBa=12.97
23/09/2022,13:13:41,TEMP=24.0,BA=5.68,STAT.D=5.5,ExtBa=13.57
23/09/2022,13:28:41,TEMP=24.2,BA=5.68,STAT.D=5.5,ExtBa=13.81
23/09/2022,13:43:43,TEMP=23.9,BA=5.68,STAT.F,ExtBa=13.87
23/09/2022,13:58:41,TEMP=23.4,BA=5.68,STAT.D=5.5,ExtBa=13.89
23/09/2022,14:13:41,TEMP=23.2,BA=5.68,STAT.D=5.0,ExtBa=13.89
23/09/2022,14:28:41,TEMP=23.1,BA=5.68,STAT.D=5.0,ExtBa=13.88
23/09/2022,14:43:42,TEMP=22.6,BA=5.68,STAT.F,ExtBa=13.86
23/09/2022,14:50:46,TEMP=22.4,BA=5.68,STAT.A=5.0,ExtBa=13.84
23/09/2022,15:08:16,TEMP=22.2,BA=5.68,STAT.A=5.0,ExtBa=13.87
23/09/2022,15:22:15,TEMP=22.1,BA=5.68,STAT.A=5.0,ExtBa=13.86
23/09/2022,15:33:47,TEMP=21.8,BA=5.68,STAT.A=5.0,ExtBa=13.86
23/09/2022,15:43:29,TEMP=21.7,BA=5.68,STAT.C=5.0,ExtBa=13.86
23/09/2022,15:51:47,TEMP=21.6,BA=5.68,STAT.A=5.0,ExtBa=13.86
23/09/2022,15:58:58,TEMP=21.7,BA=5.68,STAT.A=5.0,ExtBa=13.86
23/09/2022,16:05:16,TEMP=21.6,BA=5.40,STAT.A=5.0,ExtBa=13.86
23/09/2022,16:10:50,TEMP=21.6,BA=5.68,STAT.A=5.0,ExtBa=13.85
23/09/2022,16:15:48,TEMP=21.5,BA=5.68,STAT.B=5.0,ExtBa=13.84
23/09/2022,16:26:08,TEMP=21.1,BA=5.68,STAT.A=5.0,ExtBa=13.85
23/09/2022,16:34:16,TEMP=20.9,BA=5.68,STAT.A=5.0,ExtBa=13.86
23/09/2022,16:40:52,TEMP=20.8,BA=5.68,STAT.A=5.0,ExtBa=13.85
23/09/2022,16:46:20,TEMP=20.7,BA=5.68,STAT.A=5.0,ExtBa=13.85
23/09/2022,16:51:50,TEMP=20.7,BA=5.44,STAT.A=5.0,ExtBa=13.85
23/09/2022,16:54:51,TEMP=20.8,BA=5.44,STAT.A=5.0,ExtBa=13.81